Time;durP1;ratioP1;P1;durP2;ratioP2;P2;SDS_P1;SDS_P2;PMS_P1;PMS_P2;Temp;Humidity;BMP_temperature;BMP_pressure;BME280_temperature;BME280_humidity;BME280_pressure;Samples;Min_cycle;Max_cycle;Signal;HPM_P1;HPM_P2
2023/09/29 00:01:50;;;;;;;5.82;2.30;;;;;;;;;;4845172;29;20508;-78
2023/09/29 00:04:21;;;;;;;6.43;2.70;;;;;;;;;;4844901;29;20041;-78
2023/09/29 00:06:51;;;;;;;5.97;2.75;;;;;;;;;;4845344;29;20061;-78
2023/09/29 00:22:48;;;;;;;5.57;2.17;;;;;;;;;;4857182;29;20038;-78
2023/09/29 00:25:48;;;;;;;4.80;2.00;;;;;;;;;;4862819;29;20041;-78
2023/09/29 00:28:21;;;;;;;5.13;2.13;;;;;;;;;;4859858;29;20072;-80
2023/09/29 00:30:54;;;;;;;5.18;2.42;;;;;;;;;;4871117;29;20069;-79
2023/09/29 00:33:24;;;;;;;5.18;2.40;;;;;;;;;;4862641;29;20493;-81
2023/09/29 00:36:01;;;;;;;5.45;2.03;;;;;;;;;;4858917;29;20045;-81
2023/09/29 00:38:33;;;;;;;5.88;2.53;;;;;;;;;;4857424;29;20045;-79
2023/09/29 00:41:06;;;;;;;5.53;2.20;;;;;;;;;;4846058;29;20057;-78
2023/09/29 00:43:38;;;;;;;5.10;2.08;;;;;;;;;;4844760;29;20061;-80
2023/09/29 00:46:12;;;;;;;7.47;2.25;;;;;;;;;;4842111;29;20405;-81
2023/09/29 00:48:49;;;;;;;8.00;2.58;;;;;;;;;;4842780;29;20042;-79
2023/09/29 00:51:22;;;;;;;10.02;2.45;;;;;;;;;;4836130;29;20050;-78
2023/09/29 00:53:53;;;;;;;7.03;2.53;;;;;;;;;;4839274;29;20050;-81
2023/09/29 00:56:24;;;;;;;6.60;2.28;;;;;;;;;;4839787;29;20050;-80
2023/09/29 00:58:57;;;;;;;7.35;2.75;;;;;;;;;;4832814;29;20045;-79
2023/09/29 01:01:27;;;;;;;6.57;2.35;;;;;;;;;;4841892;29;20050;-79
2023/09/29 01:03:57;;;;;;;4.25;2.08;;;;;;;;;;4806540;29;20043;-79
2023/09/29 01:06:31;;;;;;;6.47;2.72;;;;;;;;;;4822451;29;20050;-80
2023/09/29 01:09:06;;;;;;;6.97;2.20;;;;;;;;;;4824970;29;20046;-80
2023/09/29 01:11:44;;;;;;;6.20;2.50;;;;;;;;;;4825009;29;20042;-81
2023/09/29 01:14:14;;;;;;;4.65;2.20;;;;;;;;;;4825228;29;20072;-78
2023/09/29 01:16:48;;;;;;;5.40;2.40;;;;;;;;;;4824704;29;20447;-79
2023/09/29 01:19:23;;;;;;;4.85;2.30;;;;;;;;;;4824969;29;20046;-79
2023/09/29 01:21:55;;;;;;;6.70;2.70;;;;;;;;;;4827111;29;20608;-80
2023/09/29 01:24:27;;;;;;;5.80;2.92;;;;;;;;;;4842955;29;20061;-79
2023/09/29 01:26:59;;;;;;;6.88;2.38;;;;;;;;;;4842910;29;20069;-80
2023/09/29 01:29:30;;;;;;;9.45;2.60;;;;;;;;;;4825691;29;20065;-81
2023/09/29 01:32:02;;;;;;;9.88;2.58;;;;;;;;;;4839192;29;20054;-81
2023/09/29 01:34:36;;;;;;;8.07;2.60;;;;;;;;;;4824682;29;20062;-79
2023/09/29 01:37:07;;;;;;;8.13;3.15;;;;;;;;;;4824770;29;20383;-79
2023/09/29 01:39:38;;;;;;;5.93;2.40;;;;;;;;;;4824228;29;20055;-78
2023/09/29 01:42:10;;;;;;;7.07;2.42;;;;;;;;;;4808305;29;20490;-79
2023/09/29 01:44:43;;;;;;;6.20;2.67;;;;;;;;;;4824504;29;20478;-79
2023/09/29 01:47:13;;;;;;;5.47;2.42;;;;;;;;;;4824099;29;20054;-78
2023/09/29 01:49:48;;;;;;;5.68;2.38;;;;;;;;;;4832873;29;20512;-78
2023/09/29 01:52:22;;;;;;;6.32;2.70;;;;;;;;;;4842306;29;20065;-79
2023/09/29 01:54:57;;;;;;;5.40;2.42;;;;;;;;;;4842670;29;20402;-79
2023/09/29 01:57:27;;;;;;;9.00;2.70;;;;;;;;;;4842256;29;20672;-79
2023/09/29 02:00:04;;;;;;;4.82;2.38;;;;;;;;;;4825493;29;20510;-78
2023/09/29 02:02:43;;;;;;;6.80;2.55;;;;;;;;;;4842236;29;20054;-77
2023/09/29 02:05:16;;;;;;;7.65;2.63;;;;;;;;;;4842260;29;20050;-79
2023/09/29 02:07:51;;;;;;;6.13;2.45;;;;;;;;;;4842242;29;20037;-78
2023/09/29 02:10:24;;;;;;;5.05;2.53;;;;;;;;;;4825752;29;20054;-78
2023/09/29 02:12:58;;;;;;;8.73;2.65;;;;;;;;;;4857141;29;20050;-78
2023/09/29 02:15:33;;;;;;;5.82;2.67;;;;;;;;;;4843648;29;20058;-78
2023/09/29 02:18:05;;;;;;;7.43;2.72;;;;;;;;;;4858927;29;20061;-80
2023/09/29 02:20:46;;;;;;;5.60;2.28;;;;;;;;;;4843759;29;20061;-79
2023/09/29 02:23:17;;;;;;;6.80;2.67;;;;;;;;;;4860540;29;20064;-78
2023/09/29 02:25:51;;;;;;;5.95;2.58;;;;;;;;;;4843912;29;20049;-78
2023/09/29 02:28:22;;;;;;;4.78;2.40;;;;;;;;;;4860278;29;20052;-78
2023/09/29 02:30:57;;;;;;;5.78;2.53;;;;;;;;;;4860587;29;20493;-78
2023/09/29 02:33:30;;;;;;;5.68;2.55;;;;;;;;;;4855812;29;20494;-81
2023/09/29 02:36:03;;;;;;;6.25;2.63;;;;;;;;;;4826643;29;20053;-77
2023/09/29 02:38:36;;;;;;;5.53;2.38;;;;;;;;;;4841973;29;20057;-79
2023/09/29 02:41:07;;;;;;;5.50;2.20;;;;;;;;;;4841648;29;20054;-78
2023/09/29 02:43:38;;;;;;;6.97;2.50;;;;;;;;;;4841935;29;20050;-79
2023/09/29 02:46:14;;;;;;;6.25;2.67;;;;;;;;;;4841512;29;20482;-78
2023/09/29 02:48:45;;;;;;;7.15;2.38;;;;;;;;;;4841535;29;20061;-78
2023/09/29 02:51:20;;;;;;;6.53;2.20;;;;;;;;;;4840974;29;20049;-80
2023/09/29 02:54:15;;;;;;;5.78;2.50;;;;;;;;;;4841089;29;20413;-77
2023/09/29 02:56:47;;;;;;;6.68;2.83;;;;;;;;;;4824450;29;20061;-79
2023/09/29 02:59:20;;;;;;;5.95;2.35;;;;;;;;;;4840865;29;20054;-79
2023/09/29 03:01:57;;;;;;;5.10;2.15;;;;;;;;;;4839363;29;20046;-79
2023/09/29 03:04:28;;;;;;;5.65;1.95;;;;;;;;;;4840882;29;20065;-80
2023/09/29 03:06:59;;;;;;;6.80;1.95;;;;;;;;;;4840799;29;20057;-80
2023/09/29 03:09:29;;;;;;;8.02;2.30;;;;;;;;;;4840744;29;20038;-78
2023/09/29 03:12:01;;;;;;;5.18;2.70;;;;;;;;;;4839725;29;20409;-79
2023/09/29 03:14:34;;;;;;;4.30;1.50;;;;;;;;;;4824030;29;20062;-78
2023/09/29 03:17:05;;;;;;;5.25;2.05;;;;;;;;;;4840684;29;20385;-78
2023/09/29 03:19:36;;;;;;;5.72;2.00;;;;;;;;;;4840413;29;20493;-80
2023/09/29 03:22:11;;;;;;;4.78;1.70;;;;;;;;;;4841072;29;20057;-80
2023/09/29 03:24:43;;;;;;;4.55;2.15;;;;;;;;;;4841028;29;20046;-79
2023/09/29 03:27:18;;;;;;;5.95;2.33;;;;;;;;;;4838894;29;20058;-79
2023/09/29 03:29:50;;;;;;;6.15;2.10;;;;;;;;;;4853975;29;20049;-78
2023/09/29 03:32:20;;;;;;;4.03;1.92;;;;;;;;;;4840806;29;20061;-78
2023/09/29 03:34:52;;;;;;;4.45;1.83;;;;;;;;;;4840382;29;20057;-78
2023/09/29 03:37:24;;;;;;;5.90;2.10;;;;;;;;;;4840221;29;20060;-78
2023/09/29 03:39:56;;;;;;;6.43;1.88;;;;;;;;;;4839969;29;20410;-79
2023/09/29 03:42:28;;;;;;;4.80;1.63;;;;;;;;;;4840051;29;20050;-77
2023/09/29 03:45:05;;;;;;;6.95;1.70;;;;;;;;;;4840821;29;20046;-79
2023/09/29 03:47:36;;;;;;;10.95;2.13;;;;;;;;;;4841956;29;20489;-79
2023/09/29 03:50:11;;;;;;;4.60;1.57;;;;;;;;;;4765056;29;2299012;-77
2023/09/29 03:52:48;;;;;;;6.03;1.60;;;;;;;;;;4843066;29;20042;-79
2023/09/29 03:55:20;;;;;;;4.10;1.60;;;;;;;;;;4845600;29;20050;-77
2023/09/29 03:57:53;;;;;;;4.40;1.45;;;;;;;;;;4846506;29;20045;-79
2023/09/29 04:00:22;;;;;;;6.15;1.95;;;;;;;;;;4845638;29;20078;-79
2023/09/29 04:02:55;;;;;;;4.93;1.98;;;;;;;;;;4846309;29;20050;-77
2023/09/29 04:05:26;;;;;;;6.93;1.80;;;;;;;;;;4845203;29;20046;-79
2023/09/29 04:07:58;;;;;;;3.80;1.80;;;;;;;;;;4845962;29;20054;-77
2023/09/29 04:10:28;;;;;;;5.25;1.67;;;;;;;;;;4845226;29;20058;-77
2023/09/29 04:13:03;;;;;;;3.03;1.55;;;;;;;;;;4845731;29;20050;-77
2023/09/29 04:15:36;;;;;;;3.75;1.50;;;;;;;;;;4845118;29;20069;-80
2023/09/29 04:18:06;;;;;;;6.25;1.80;;;;;;;;;;4845396;29;20072;-76
2023/09/29 04:20:36;;;;;;;4.93;1.52;;;;;;;;;;4844806;29;20076;-78
2023/09/29 04:23:08;;;;;;;4.10;1.40;;;;;;;;;;4844866;29;20142;-78
2023/09/29 04:25:41;;;;;;;4.82;1.70;;;;;;;;;;4845632;29;20045;-77
2023/09/29 04:28:15;;;;;;;4.57;1.40;;;;;;;;;;4827911;29;20061;-79
2023/09/29 04:30:45;;;;;;;2.80;1.40;;;;;;;;;;4844523;29;20049;-77
2023/09/29 04:33:15;;;;;;;6.40;2.17;;;;;;;;;;4844657;29;20421;-77
2023/09/29 04:35:46;;;;;;;4.88;2.40;;;;;;;;;;4845483;29;20371;-78
2023/09/29 04:38:17;;;;;;;9.00;2.35;;;;;;;;;;4844628;29;20053;-79
2023/09/29 04:40:47;;;;;;;3.95;1.38;;;;;;;;;;4844514;29;20061;-79
2023/09/29 04:43:18;;;;;;;3.85;1.80;;;;;;;;;;4844699;29;20053;-76
2023/09/29 04:45:48;;;;;;;3.08;1.50;;;;;;;;;;4844300;29;20038;-78
2023/09/29 04:48:20;;;;;;;5.82;1.63;;;;;;;;;;4844842;29;20046;-77
2023/09/29 04:50:54;;;;;;;4.18;1.75;;;;;;;;;;4844804;29;20054;-77
2023/09/29 04:53:26;;;;;;;3.92;1.63;;;;;;;;;;4844800;29;20061;-77
2023/09/29 04:56:02;;;;;;;6.20;1.90;;;;;;;;;;4844276;29;20045;-78
2023/09/29 04:58:33;;;;;;;5.03;1.88;;;;;;;;;;4854622;29;20030;-78
2023/09/29 05:01:04;;;;;;;4.57;2.22;;;;;;;;;;4868072;29;20052;-78
2023/09/29 05:03:34;;;;;;;4.88;1.75;;;;;;;;;;4867934;29;20060;-78
2023/09/29 05:06:06;;;;;;;7.60;2.08;;;;;;;;;;4868036;29;20045;-77
2023/09/29 05:08:37;;;;;;;5.65;1.88;;;;;;;;;;4867868;29;20037;-78
2023/09/29 05:11:07;;;;;;;3.92;1.85;;;;;;;;;;4867899;29;20030;-78
2023/09/29 05:13:37;;;;;;;5.25;2.00;;;;;;;;;;4859051;29;20061;-77
2023/09/29 05:16:07;;;;;;;5.43;2.55;;;;;;;;;;4843847;29;20066;-79
2023/09/29 05:18:37;;;;;;;6.25;1.92;;;;;;;;;;4844320;29;20058;-78
2023/09/29 05:21:09;;;;;;;6.18;1.95;;;;;;;;;;4844504;29;20057;-77
2023/09/29 05:23:44;;;;;;;3.85;1.85;;;;;;;;;;4844128;29;20072;-77
2023/09/29 05:26:15;;;;;;;3.60;1.60;;;;;;;;;;4843805;29;20050;-77
2023/09/29 05:28:46;;;;;;;4.55;1.63;;;;;;;;;;4843902;29;20050;-77
2023/09/29 05:31:17;;;;;;;4.97;2.00;;;;;;;;;;4844081;29;20050;-78
2023/09/29 05:33:47;;;;;;;6.03;2.15;;;;;;;;;;4844010;29;20050;-77
2023/09/29 05:36:17;;;;;;;4.18;1.73;;;;;;;;;;4843739;29;20406;-76
2023/09/29 05:38:47;;;;;;;5.93;2.47;;;;;;;;;;4844375;29;20394;-77
2023/09/29 05:41:19;;;;;;;4.57;1.70;;;;;;;;;;4843732;29;20469;-77
2023/09/29 05:43:51;;;;;;;5.72;1.85;;;;;;;;;;4843512;29;20077;-77
2023/09/29 05:46:21;;;;;;;4.80;2.00;;;;;;;;;;4844278;29;20061;-77
2023/09/29 05:48:52;;;;;;;6.60;1.95;;;;;;;;;;4843161;29;20498;-77
2023/09/29 05:51:22;;;;;;;5.05;1.92;;;;;;;;;;4844144;29;20053;-77
2023/09/29 05:53:54;;;;;;;4.72;1.88;;;;;;;;;;4843771;29;20054;-77
2023/09/29 05:56:26;;;;;;;5.00;1.98;;;;;;;;;;4844192;29;20046;-77
2023/09/29 05:59:01;;;;;;;5.47;2.22;;;;;;;;;;4843692;29;20054;-78
2023/09/29 06:01:31;;;;;;;4.18;1.75;;;;;;;;;;4843239;29;20072;-77
2023/09/29 06:04:03;;;;;;;5.47;1.88;;;;;;;;;;4843893;29;20050;-77
2023/09/29 06:06:33;;;;;;;6.07;2.15;;;;;;;;;;4842947;29;20401;-77
2023/09/29 06:09:07;;;;;;;7.28;2.13;;;;;;;;;;4843655;29;20098;-77
2023/09/29 06:11:37;;;;;;;5.93;2.25;;;;;;;;;;4843276;29;20046;-77
2023/09/29 06:14:10;;;;;;;4.28;1.75;;;;;;;;;;4856858;29;20054;-77
2023/09/29 06:16:41;;;;;;;6.07;2.40;;;;;;;;;;4843363;29;20061;-78
2023/09/29 06:19:12;;;;;;;4.05;1.73;;;;;;;;;;4843439;29;20064;-77
2023/09/29 06:21:44;;;;;;;5.60;1.98;;;;;;;;;;4843282;29;20049;-79
2023/09/29 06:24:14;;;;;;;;;;;;;;;;;;4843864;29;20521;-78
2023/09/29 06:26:44;;;;;;;4.15;1.80;;;;;;;;;;4842580;29;19924;-77
2023/09/29 06:29:14;;;;;;;5.93;2.40;;;;;;;;;;4842628;29;20046;-77
2023/09/29 06:32:11;;;;;;;6.47;1.88;;;;;;;;;;4843156;29;20046;-77
2023/09/29 06:34:41;;;;;;;6.75;2.03;;;;;;;;;;4842779;29;20394;-77
2023/09/29 06:37:15;;;;;;;5.07;1.63;;;;;;;;;;4842552;29;20046;-76
2023/09/29 06:39:46;;;;;;;9.32;2.38;;;;;;;;;;4842470;29;20053;-76
2023/09/29 06:42:18;;;;;;;8.73;2.40;;;;;;;;;;4842918;29;20061;-76
2023/09/29 06:44:48;;;;;;;6.18;2.15;;;;;;;;;;4842913;29;20046;-77
2023/09/29 06:47:22;;;;;;;5.57;1.95;;;;;;;;;;4842759;29;20053;-79
2023/09/29 06:49:53;;;;;;;5.88;2.03;;;;;;;;;;4842748;29;20050;-77
2023/09/29 06:52:25;;;;;;;6.18;2.03;;;;;;;;;;4842600;29;20057;-78
2023/09/29 06:54:55;;;;;;;5.05;1.83;;;;;;;;;;4842594;29;20050;-78
2023/09/29 06:57:25;;;;;;;7.20;2.03;;;;;;;;;;4842603;29;20060;-77
2023/09/29 06:59:58;;;;;;;5.65;2.35;;;;;;;;;;4842291;29;20049;-77
2023/09/29 07:02:28;;;;;;;5.63;2.53;;;;;;;;;;4842341;29;20053;-77
2023/09/29 07:04:58;;;;;;;6.93;1.85;;;;;;;;;;4843142;29;20046;-77
2023/09/29 07:07:33;;;;;;;6.22;2.63;;;;;;;;;;4842366;29;20393;-77
2023/09/29 07:10:04;;;;;;;6.30;2.15;;;;;;;;;;4842684;29;20049;-77
2023/09/29 07:12:34;;;;;;;6.82;2.20;;;;;;;;;;4826461;29;20045;-77
2023/09/29 07:15:07;;;;;;;6.05;1.98;;;;;;;;;;4842468;29;20058;-77
2023/09/29 07:17:39;;;;;;;12.43;2.60;;;;;;;;;;4842533;29;20046;-77
2023/09/29 07:20:13;;;;;;;6.63;1.80;;;;;;;;;;4841870;29;20057;-77
2023/09/29 07:22:43;;;;;;;6.18;2.33;;;;;;;;;;4842489;29;20058;-78
2023/09/29 07:25:15;;;;;;;5.20;1.88;;;;;;;;;;4842169;29;20054;-78
2023/09/29 07:27:50;;;;;;;4.38;1.70;;;;;;;;;;4844245;29;20054;-79
2023/09/29 07:30:23;;;;;;;8.25;2.20;;;;;;;;;;4846766;29;20497;-78
2023/09/29 07:32:54;;;;;;;5.65;2.22;;;;;;;;;;4846084;29;20041;-78
2023/09/29 07:35:49;;;;;;;5.80;1.98;;;;;;;;;;4845926;29;20053;-77
2023/09/29 07:38:22;;;;;;;7.68;1.80;;;;;;;;;;4846356;29;20056;-77
2023/09/29 07:40:52;;;;;;;8.05;2.65;;;;;;;;;;4846194;29;20401;-77
2023/09/29 07:43:23;;;;;;;4.93;2.13;;;;;;;;;;4845899;29;20050;-76
2023/09/29 07:45:54;;;;;;;5.93;1.83;;;;;;;;;;4845860;29;20072;-78
2023/09/29 07:48:27;;;;;;;6.53;1.95;;;;;;;;;;4845659;29;20053;-78
2023/09/29 07:50:59;;;;;;;6.22;1.70;;;;;;;;;;4845948;29;20054;-77
2023/09/29 07:53:29;;;;;;;4.95;1.60;;;;;;;;;;4845868;29;20053;-77
2023/09/29 07:55:59;;;;;;;8.70;2.13;;;;;;;;;;4845512;29;20049;-78
2023/09/29 07:58:31;;;;;;;12.13;2.60;;;;;;;;;;4845402;29;20053;-78
2023/09/29 08:01:02;;;;;;;7.18;2.08;;;;;;;;;;4845693;29;20049;-78
2023/09/29 08:03:32;;;;;;;6.80;1.92;;;;;;;;;;4845575;29;20054;-78
2023/09/29 08:06:06;;;;;;;4.78;2.05;;;;;;;;;;4845883;29;20049;-79
2023/09/29 08:08:37;;;;;;;9.52;2.05;;;;;;;;;;4845397;29;20049;-78
2023/09/29 08:11:09;;;;;;;8.32;1.90;;;;;;;;;;4845331;29;20061;-77
2023/09/29 08:13:40;;;;;;;6.47;1.90;;;;;;;;;;4845617;29;20474;-77
2023/09/29 08:16:10;;;;;;;5.53;2.35;;;;;;;;;;4845330;29;20053;-77
2023/09/29 08:18:42;;;;;;;4.65;2.10;;;;;;;;;;4845309;29;20501;-77
2023/09/29 08:21:14;;;;;;;5.82;1.83;;;;;;;;;;4845247;29;20058;-77
2023/09/29 08:23:43;;;;;;;6.90;1.75;;;;;;;;;;4845048;29;20057;-79
2023/09/29 08:26:14;;;;;;;5.88;1.75;;;;;;;;;;4845514;29;20057;-77
2023/09/29 08:28:44;;;;;;;5.47;2.45;;;;;;;;;;4845253;29;20393;-77
2023/09/29 08:31:19;;;;;;;7.47;2.00;;;;;;;;;;4845351;29;20057;-78
2023/09/29 08:33:53;;;;;;;6.75;1.98;;;;;;;;;;4829455;29;20057;-78
2023/09/29 08:36:25;;;;;;;7.18;2.22;;;;;;;;;;4845104;29;20074;-77
2023/09/29 08:39:00;;;;;;;6.70;2.10;;;;;;;;;;4843817;29;20056;-77
2023/09/29 08:41:36;;;;;;;5.75;1.80;;;;;;;;;;4845135;29;20395;-78
2023/09/29 08:44:12;;;;;;;6.75;2.22;;;;;;;;;;4844672;29;20379;-79
2023/09/29 08:46:45;;;;;;;4.03;1.98;;;;;;;;;;4844418;29;20054;-78
2023/09/29 08:49:18;;;;;;;8.32;1.95;;;;;;;;;;4839740;29;20516;-76
2023/09/29 08:51:56;;;;;;;7.65;1.92;;;;;;;;;;4826506;29;20050;-76
2023/09/29 08:54:30;;;;;;;6.20;1.95;;;;;;;;;;4844441;29;20493;-77
2023/09/29 08:57:03;;;;;;;5.90;1.90;;;;;;;;;;4844663;29;20053;-78
2023/09/29 08:59:38;;;;;;;7.50;1.95;;;;;;;;;;4844701;29;20046;-80
2023/09/29 09:02:11;;;;;;;5.07;1.90;;;;;;;;;;4844233;29;20057;-78
2023/09/29 09:04:41;;;;;;;7.07;2.20;;;;;;;;;;4844477;29;20458;-78
2023/09/29 09:07:12;;;;;;;5.72;1.67;;;;;;;;;;4843920;29;20515;-77
2023/09/29 09:09:50;;;;;;;6.53;1.90;;;;;;;;;;4843889;29;20506;-80
2023/09/29 09:12:35;;;;;;;6.07;2.20;;;;;;;;;;4832720;29;20049;-78
2023/09/29 09:15:07;;;;;;;6.53;2.08;;;;;;;;;;4834181;29;20053;-78
2023/09/29 09:17:43;;;;;;;6.82;2.20;;;;;;;;;;4844105;29;20045;-78
2023/09/29 09:20:16;;;;;;;8.10;1.83;;;;;;;;;;4843680;29;20046;-78
2023/09/29 09:23:06;;;;;;;11.02;2.53;;;;;;;;;;4844123;29;20045;-79
2023/09/29 09:25:42;;;;;;;3.88;1.60;;;;;;;;;;4844419;29;20077;-79
2023/09/29 09:28:18;;;;;;;8.30;1.98;;;;;;;;;;4843937;29;20053;-78
2023/09/29 09:30:59;;;;;;;5.47;1.90;;;;;;;;;;4843917;29;20050;-77
2023/09/29 09:33:31;;;;;;;4.97;2.00;;;;;;;;;;4844181;29;20053;-76
2023/09/29 09:36:10;;;;;;;4.85;2.00;;;;;;;;;;4843749;29;20049;-79
2023/09/29 09:38:42;;;;;;;9.10;2.13;;;;;;;;;;4844246;29;20050;-80
2023/09/29 09:41:16;;;;;;;7.53;2.20;;;;;;;;;;4840854;29;20053;-80
2023/09/29 09:43:47;;;;;;;7.95;2.05;;;;;;;;;;4810038;29;20054;-78
2023/09/29 09:46:20;;;;;;;6.10;2.03;;;;;;;;;;4824996;29;20043;-78
2023/09/29 09:49:09;;;;;;;7.88;2.30;;;;;;;;;;4829339;29;20050;-80
2023/09/29 09:51:47;;;;;;;6.28;2.38;;;;;;;;;;4853728;29;20419;-80
2023/09/29 09:54:29;;;;;;;8.30;2.28;;;;;;;;;;4854196;29;20378;-77
2023/09/29 09:57:08;;;;;;;7.35;1.98;;;;;;;;;;4843926;29;20054;-80
2023/09/29 09:59:44;;;;;;;4.00;1.73;;;;;;;;;;4844213;29;20062;-77
2023/09/29 10:02:14;;;;;;;6.43;1.92;;;;;;;;;;4843460;29;20058;-78
2023/09/29 10:04:49;;;;;;;10.40;2.67;;;;;;;;;;4843538;29;20050;-77
2023/09/29 10:07:22;;;;;;;8.90;2.28;;;;;;;;;;4846136;29;20045;-79
2023/09/29 10:10:00;;;;;;;7.18;1.92;;;;;;;;;;4859601;29;20041;-78
2023/09/29 10:12:32;;;;;;;7.95;2.17;;;;;;;;;;4864302;29;20049;-78
2023/09/29 10:15:14;;;;;;;7.05;1.70;;;;;;;;;;4884499;29;20041;-80
2023/09/29 10:17:47;;;;;;;4.82;1.80;;;;;;;;;;4884727;29;20041;-79
2023/09/29 10:20:24;;;;;;;;;;;;;;;;;;4885041;29;20033;-76
2023/09/29 10:23:16;;;;;;;4.60;1.73;;;;;;;;;;4883427;29;19928;-79
2023/09/29 10:26:00;;;;;;;5.47;1.80;;;;;;;;;;4883978;29;20029;-79
2023/09/29 10:28:36;;;;;;;5.28;2.03;;;;;;;;;;4867592;29;20505;-79
2023/09/29 10:31:13;;;;;;;4.50;2.17;;;;;;;;;;4855553;29;20045;-78
2023/09/29 10:33:54;;;;;;;6.65;2.35;;;;;;;;;;4860467;29;20053;-79
2023/09/29 10:36:30;;;;;;;5.18;1.85;;;;;;;;;;4860169;29;20076;-78
2023/09/29 10:39:04;;;;;;;6.07;2.10;;;;;;;;;;4858344;29;20046;-78
2023/09/29 10:41:37;;;;;;;5.68;1.88;;;;;;;;;;4840240;29;20489;-80
2023/09/29 10:44:09;;;;;;;6.68;1.92;;;;;;;;;;4860276;29;20058;-78
2023/09/29 10:46:51;;;;;;;5.10;1.73;;;;;;;;;;4858700;29;20041;-78
2023/09/29 10:49:31;;;;;;;6.93;1.30;;;;;;;;;;4857266;29;20061;-78
2023/09/29 10:52:05;;;;;;;6.03;2.83;;;;;;;;;;4861761;29;20397;-82
2023/09/29 10:54:43;;;;;;;4.53;1.98;;;;;;;;;;4861454;29;20045;-78
2023/09/29 10:57:20;;;;;;;4.97;1.35;;;;;;;;;;4861458;29;20065;-78
2023/09/29 10:59:59;;;;;;;4.90;1.73;;;;;;;;;;4861436;29;20049;-78
2023/09/29 11:02:33;;;;;;;4.65;1.45;;;;;;;;;;4861071;29;20049;-79
2023/09/29 11:05:09;;;;;;;3.53;1.45;;;;;;;;;;4861203;29;20046;-78
2023/09/29 11:07:50;;;;;;;5.63;1.70;;;;;;;;;;4838658;29;20414;-79
2023/09/29 11:10:24;;;;;;;4.43;1.40;;;;;;;;;;4823393;29;20073;-79
2023/09/29 11:12:57;;;;;;;3.72;1.40;;;;;;;;;;4823130;29;20078;-78
2023/09/29 11:15:28;;;;;;;3.72;1.20;;;;;;;;;;4825628;29;20046;-80
2023/09/29 11:17:59;;;;;;;4.97;1.55;;;;;;;;;;4859517;29;20058;-78
2023/09/29 11:20:34;;;;;;;5.55;1.38;;;;;;;;;;4855466;29;20046;-77
2023/09/29 11:23:07;;;;;;;3.97;1.27;;;;;;;;;;4854709;29;20045;-83
2023/09/29 11:25:54;;;;;;;4.40;1.42;;;;;;;;;;4851035;29;20069;-80
2023/09/29 11:28:30;;;;;;;5.18;1.38;;;;;;;;;;4841049;29;20046;-79
2023/09/29 11:31:05;;;;;;;7.25;1.88;;;;;;;;;;4824959;29;20514;-78
2023/09/29 11:33:40;;;;;;;4.25;1.58;;;;;;;;;;4841623;29;20520;-78
2023/09/29 11:36:27;;;;;;;3.60;1.55;;;;;;;;;;4841227;29;20050;-78
2023/09/29 11:38:58;;;;;;;4.13;1.10;;;;;;;;;;4841061;29;20600;-78
2023/09/29 11:41:30;;;;;;;2.90;1.20;;;;;;;;;;4840999;29;20057;-79
2023/09/29 11:44:00;;;;;;;4.72;1.40;;;;;;;;;;4841119;29;20494;-80
2023/09/29 11:46:30;;;;;;;4.70;2.17;;;;;;;;;;4841097;29;20409;-78
2023/09/29 11:49:03;;;;;;;8.10;2.33;;;;;;;;;;4841418;29;20058;-79
2023/09/29 11:51:35;;;;;;;4.93;1.50;;;;;;;;;;4856234;29;20049;-80
2023/09/29 11:54:06;;;;;;;2.97;1.77;;;;;;;;;;4855249;29;20124;-80
2023/09/29 11:56:37;;;;;;;8.55;2.47;;;;;;;;;;4852514;29;20052;-81
2023/09/29 11:59:08;;;;;;;5.65;2.65;;;;;;;;;;4858819;29;20053;-80
2023/09/29 12:01:39;;;;;;;6.28;1.65;;;;;;;;;;4858867;29;20053;-79
2023/09/29 12:04:12;;;;;;;5.82;2.75;;;;;;;;;;4853552;29;20049;-81
2023/09/29 12:06:44;;;;;;;6.28;2.28;;;;;;;;;;4860002;29;20056;-80
2023/09/29 12:13:40;;;;;;;4.03;1.73;;;;;;;;;;4816888;29;20062;-78
2023/09/29 12:21:10;;;;;;;6.13;1.73;;;;;;;;;;4789899;29;20086;-78
2023/09/29 12:23:43;;;;;;;3.70;1.73;;;;;;;;;;4787933;30;20055;-80
2023/09/29 12:26:13;;;;;;;4.53;1.80;;;;;;;;;;4787742;30;20062;-80
2023/09/29 12:28:43;;;;;;;4.03;1.77;;;;;;;;;;4787693;30;20544;-80
2023/09/29 12:31:16;;;;;;;4.55;2.33;;;;;;;;;;4789348;29;20055;-78
2023/09/29 12:33:47;;;;;;;5.30;2.40;;;;;;;;;;4797066;29;20047;-79
2023/09/29 12:36:18;;;;;;;4.82;1.92;;;;;;;;;;4793968;29;20051;-79
2023/09/29 12:38:48;;;;;;;3.75;1.83;;;;;;;;;;4795737;29;20078;-78
2023/09/29 12:41:21;;;;;;;5.38;1.90;;;;;;;;;;4786840;29;20063;-78
2023/09/29 12:43:55;;;;;;;5.93;2.08;;;;;;;;;;4779407;30;20368;-77
2023/09/29 12:46:25;;;;;;;4.78;1.70;;;;;;;;;;4769115;30;20059;-79
2023/09/29 12:48:57;;;;;;;10.25;2.00;;;;;;;;;;4769199;30;20055;-78
2023/09/29 12:51:32;;;;;;;3.42;1.67;;;;;;;;;;4783880;30;20216;-78
2023/09/29 12:54:14;;;;;;;5.03;2.40;;;;;;;;;;4825878;29;20070;-78
2023/09/29 12:56:47;;;;;;;6.60;2.83;;;;;;;;;;4843466;29;20058;-80
2023/09/29 12:59:29;;;;;;;4.88;2.35;;;;;;;;;;4843302;29;20053;-80
2023/09/29 13:02:01;;;;;;;5.75;4.55;;;;;;;;;;4843381;29;20382;-79
2023/09/29 13:04:33;;;;;;;8.48;2.50;;;;;;;;;;4843197;29;20141;-79
2023/09/29 13:07:04;;;;;;;5.88;2.03;;;;;;;;;;4843140;29;20046;-80
2023/09/29 13:09:37;;;;;;;6.57;2.33;;;;;;;;;;4826832;29;20054;-80
2023/09/29 13:12:07;;;;;;;4.68;2.75;;;;;;;;;;4843504;29;20541;-80
2023/09/29 13:14:57;;;;;;;4.05;2.05;;;;;;;;;;4826338;29;20061;-77
2023/09/29 13:17:28;;;;;;;4.53;1.90;;;;;;;;;;4852613;29;20050;-78
2023/09/29 13:19:58;;;;;;;4.32;2.55;;;;;;;;;;4854349;29;20045;-81
2023/09/29 13:22:29;;;;;;;7.35;1.80;;;;;;;;;;4860399;29;20420;-79
2023/09/29 13:25:00;;;;;;;5.68;2.22;;;;;;;;;;4856620;29;20540;-79
2023/09/29 13:27:32;;;;;;;3.63;1.90;;;;;;;;;;4860041;29;20050;-79
2023/09/29 13:30:04;;;;;;;5.45;2.55;;;;;;;;;;4860827;29;20426;-78
2023/09/29 13:32:37;;;;;;;4.85;1.63;;;;;;;;;;4861395;29;20060;-79
2023/09/29 13:35:09;;;;;;;5.18;2.45;;;;;;;;;;4860929;29;20064;-80
2023/09/29 13:37:41;;;;;;;5.75;2.47;;;;;;;;;;4860377;29;20516;-78
2023/09/29 13:40:12;;;;;;;4.60;2.40;;;;;;;;;;4852930;29;20053;-78
2023/09/29 13:42:44;;;;;;;4.78;2.33;;;;;;;;;;4842846;29;20064;-78
2023/09/29 13:45:19;;;;;;;4.43;2.30;;;;;;;;;;4846630;29;20045;-76
2023/09/29 13:47:50;;;;;;;5.43;2.33;;;;;;;;;;4829415;29;20060;-77
2023/09/29 13:50:20;;;;;;;5.45;2.53;;;;;;;;;;4842225;29;20058;-78
2023/09/29 13:52:55;;;;;;;7.00;3.20;;;;;;;;;;4852655;29;20045;-78
2023/09/29 13:55:29;;;;;;;6.57;2.88;;;;;;;;;;4860099;29;20053;-77
2023/09/29 13:58:01;;;;;;;11.77;3.67;;;;;;;;;;4860098;29;20057;-78
2023/09/29 14:00:39;;;;;;;19.92;7.60;;;;;;;;;;4860467;29;20052;-79
2023/09/29 14:03:14;;;;;;;5.75;3.22;;;;;;;;;;4853882;29;20121;-78
2023/09/29 14:05:47;;;;;;;7.57;2.92;;;;;;;;;;4844021;29;20050;-79
2023/09/29 14:08:19;;;;;;;8.68;3.17;;;;;;;;;;4861203;29;20053;-78
2023/09/29 14:10:50;;;;;;;5.15;2.47;;;;;;;;;;4860972;29;20069;-78
2023/09/29 14:13:22;;;;;;;7.95;2.42;;;;;;;;;;4861118;29;20054;-78
2023/09/29 14:15:55;;;;;;;6.18;2.63;;;;;;;;;;4844809;29;20045;-78
2023/09/29 14:18:25;;;;;;;6.00;3.40;;;;;;;;;;4861000;29;20397;-79
2023/09/29 14:20:55;;;;;;;6.70;2.92;;;;;;;;;;4861613;29;20409;-78
2023/09/29 14:23:27;;;;;;;6.75;3.10;;;;;;;;;;4861009;29;20054;-78
2023/09/29 14:26:04;;;;;;;8.73;3.08;;;;;;;;;;4860674;29;20053;-78
2023/09/29 14:28:36;;;;;;;7.25;2.97;;;;;;;;;;4861406;29;20052;-77
2023/09/29 14:31:07;;;;;;;7.43;2.70;;;;;;;;;;4861020;29;20060;-78
2023/09/29 14:33:38;;;;;;;7.85;3.08;;;;;;;;;;4860867;29;20057;-80
2023/09/29 14:36:13;;;;;;;5.25;2.47;;;;;;;;;;4860425;29;20405;-77
2023/09/29 14:38:44;;;;;;;6.82;3.05;;;;;;;;;;4840013;29;20041;-80
2023/09/29 14:41:14;;;;;;;5.95;2.95;;;;;;;;;;4853816;29;20045;-78
2023/09/29 14:43:46;;;;;;;6.18;3.17;;;;;;;;;;4829472;29;20057;-76
2023/09/29 14:46:17;;;;;;;8.35;2.90;;;;;;;;;;4841360;29;20046;-77
2023/09/29 14:48:50;;;;;;;5.55;3.17;;;;;;;;;;4841831;29;20054;-78
2023/09/29 14:51:20;;;;;;;5.45;2.55;;;;;;;;;;4857565;29;20054;-79
2023/09/29 14:53:53;;;;;;;9.27;3.63;;;;;;;;;;4859815;29;20416;-79
2023/09/29 14:56:25;;;;;;;11.05;3.75;;;;;;;;;;4859366;29;20400;-77
2023/09/29 14:58:55;;;;;;;7.35;2.97;;;;;;;;;;4854348;29;20049;-77
2023/09/29 15:01:29;;;;;;;6.72;2.65;;;;;;;;;;4859026;29;20523;-79
2023/09/29 15:03:59;;;;;;;9.32;2.97;;;;;;;;;;4860606;29;20477;-79
2023/09/29 15:06:33;;;;;;;7.57;3.63;;;;;;;;;;4858836;29;20099;-78
2023/09/29 15:09:04;;;;;;;4.78;2.17;;;;;;;;;;4859694;29;20049;-80
2023/09/29 15:11:35;;;;;;;6.38;3.72;;;;;;;;;;4858774;29;20057;-79
2023/09/29 15:14:04;;;;;;;5.78;2.80;;;;;;;;;;4850405;29;20041;-79
2023/09/29 15:16:35;;;;;;;8.45;3.20;;;;;;;;;;4840942;29;20052;-78
2023/09/29 15:19:17;;;;;;;8.35;3.67;;;;;;;;;;4854033;29;20045;-78
2023/09/29 15:21:50;;;;;;;8.35;3.40;;;;;;;;;;4859306;29;20052;-81
2023/09/29 15:24:21;;;;;;;8.25;3.92;;;;;;;;;;4859131;29;20058;-80
2023/09/29 15:26:53;;;;;;;6.70;3.22;;;;;;;;;;4859320;29;20046;-80
2023/09/29 15:29:27;;;;;;;14.07;3.78;;;;;;;;;;4859604;29;20049;-76
2023/09/29 15:32:03;;;;;;;6.65;3.10;;;;;;;;;;4859226;29;20405;-78
2023/09/29 15:34:34;;;;;;;7.53;3.28;;;;;;;;;;4848101;29;20525;-79
2023/09/29 15:37:05;;;;;;;11.85;3.75;;;;;;;;;;4848306;29;20053;-79
2023/09/29 15:39:38;;;;;;;5.78;3.30;;;;;;;;;;4859232;29;20048;-79
2023/09/29 15:42:10;;;;;;;6.80;3.70;;;;;;;;;;4860254;29;20050;-80